X  Close Metar Aviation Weather Data        KDWH George Bush Intercontinental Airport
Temperature
53°F Temperature
40°F Dewpoint
61% Humidity



Wind
10 MPH
17 KM/H
4 M/S
9 KTS



350°
N
Current Conditions

Clear Clear
Pressure 1019 (hPa) - 30.1 (inHg)
Visibility 10 (mile) - 16 (km)
Airport
Airport-code KDWH

Location: George Bush Intercontinental Airport
Distance: 12 (mi)

Metar:
METAR KDWH 301053Z AUTO 35009G17KT 10SM CLR 12/04 A3011 RMK AO2 PK WND 35027/1024 SLP193 T01170044

Time: 11-30-2022 04:53 CST